Time;durP1;ratioP1;P1;durP2;ratioP2;P2;SDS_P1;SDS_P2;PMS_P1;PMS_P2;Temp;Humidity;BMP_temperature;BMP_pressure;BME280_temperature;BME280_humidity;BME280_pressure;Samples;Min_cycle;Max_cycle;Signal;HPM_P1;HPM_P2
2024/02/28 00:00:32;;;;;;;12.23;6.22;;;7.20;77.20;;;;;;5035736;28;20044;-66
2024/02/28 00:02:58;;;;;;;14.10;6.88;;;7.20;77.20;;;;;;5033322;28;20028;-66
2024/02/28 00:05:24;;;;;;;18.83;6.15;;;7.20;77.20;;;;;;5032334;28;20037;-66
2024/02/28 00:07:52;;;;;;;17.75;8.02;;;7.20;77.30;;;;;;5030679;28;20029;-66
2024/02/28 00:10:19;;;;;;;22.83;6.07;;;7.20;77.30;;;;;;5031197;28;20052;-69
2024/02/28 00:12:45;;;;;;;10.93;5.28;;;7.10;77.30;;;;;;5030759;28;20488;-68
2024/02/28 00:15:11;;;;;;;6.97;4.47;;;7.10;77.30;;;;;;5030324;28;20039;-67
2024/02/28 00:17:41;;;;;;;10.32;5.50;;;7.00;77.40;;;;;;5033441;28;20476;-68
2024/02/28 00:20:08;;;;;;;17.80;7.03;;;7.00;77.40;;;;;;5029103;28;20051;-68
2024/02/28 00:22:39;;;;;;;25.42;7.43;;;7.00;77.50;;;;;;5033367;28;20037;-68
2024/02/28 00:25:06;;;;;;;10.30;6.30;;;7.00;77.50;;;;;;5035294;28;20480;-67
2024/02/28 00:27:35;;;;;;;12.50;6.63;;;7.00;77.50;;;;;;5034466;28;20029;-66
2024/02/28 00:30:01;;;;;;;23.95;5.95;;;6.90;77.60;;;;;;5027843;28;20021;-66
2024/02/28 00:32:27;;;;;;;108.55;7.75;;;6.90;77.70;;;;;;5032092;28;20040;-68
2024/02/28 00:34:53;;;;;;;45.53;7.78;;;6.90;77.80;;;;;;5036519;28;20401;-66
2024/02/28 00:37:20;;;;;;;32.15;7.70;;;6.80;78.00;;;;;;5028901;28;20017;-66
2024/02/28 00:39:46;;;;;;;15.10;6.63;;;6.70;78.00;;;;;;5036311;28;20030;-66
2024/02/28 00:42:12;;;;;;;9.68;5.70;;;6.80;78.20;;;;;;5023410;28;20071;-66
2024/02/28 00:44:38;;;;;;;11.48;6.13;;;6.70;78.20;;;;;;5033275;28;20519;-66
2024/02/28 00:47:04;;;;;;;14.43;6.43;;;6.80;78.30;;;;;;5035894;28;20492;-67
2024/02/28 00:49:30;;;;;;;19.85;7.35;;;6.80;78.40;;;;;;5034991;28;20040;-67
2024/02/28 00:51:56;;;;;;;18.02;7.53;;;6.80;78.40;;;;;;5036902;28;20037;-67
2024/02/28 00:54:23;;;;;;;11.73;6.68;;;6.80;78.40;;;;;;5034477;28;20060;-66
2024/02/28 00:56:49;;;;;;;10.55;6.00;;;6.80;78.40;;;;;;5036635;28;20075;-68
2024/02/28 00:59:15;;;;;;;14.85;7.00;;;6.80;78.40;;;;;;5037661;28;20037;-66
2024/02/28 01:01:41;;;;;;;14.48;6.15;;;6.80;78.50;;;;;;5034098;28;20060;-66
2024/02/28 01:04:07;;;;;;;13.98;5.25;;;6.80;78.50;;;;;;5036798;28;20036;-69
2024/02/28 01:06:33;;;;;;;15.73;7.38;;;6.80;78.40;;;;;;5032222;28;20025;-69
2024/02/28 01:08:59;;;;;;;12.30;7.40;;;6.90;78.30;;;;;;5033762;28;20039;-69
2024/02/28 01:11:26;;;;;;;15.15;8.00;;;6.90;78.30;;;;;;5032963;28;20105;-66
2024/02/28 01:13:52;;;;;;;12.98;7.28;;;6.80;78.30;;;;;;5036909;28;20029;-69
2024/02/28 01:16:18;;;;;;;11.43;7.55;;;6.80;78.40;;;;;;5034477;28;20112;-69
2024/02/28 01:18:44;;;;;;;15.40;7.45;;;6.90;78.50;;;;;;5038163;28;20045;-69
2024/02/28 01:21:10;;;;;;;14.23;7.80;;;6.80;78.50;;;;;;5032153;28;20041;-67
2024/02/28 01:23:36;;;;;;;20.13;7.43;;;6.90;78.60;;;;;;5036176;28;20485;-66
2024/02/28 01:26:06;;;;;;;26.35;8.38;;;6.90;78.60;;;;;;5036759;28;20444;-68
2024/02/28 01:28:31;;;;;;;27.23;7.80;;;6.80;78.60;;;;;;5067481;28;20036;-68
2024/02/28 01:30:58;;;;;;;11.73;6.90;;;6.80;78.70;;;;;;5033583;28;20041;-69
2024/02/28 01:33:24;;;;;;;13.73;7.10;;;6.80;78.70;;;;;;5031745;28;20079;-67
2024/02/28 01:35:50;;;;;;;13.73;7.25;;;6.80;78.70;;;;;;5037226;28;20504;-66
2024/02/28 01:38:16;;;;;;;17.80;7.65;;;6.80;78.90;;;;;;5035697;28;20033;-68
2024/02/28 01:40:48;;;;;;;45.70;8.90;;;6.80;79.00;;;;;;5039354;28;20362;-69
2024/02/28 01:43:14;;;;;;;16.98;8.75;;;6.80;78.90;;;;;;5043381;28;20037;-68
2024/02/28 01:45:40;;;;;;;15.77;7.57;;;6.70;78.90;;;;;;5043180;28;20354;-67
2024/02/28 01:48:09;;;;;;;14.15;8.27;;;6.70;79.00;;;;;;5039901;28;20041;-66
2024/02/28 01:50:37;;;;;;;14.80;7.93;;;6.70;79.20;;;;;;5039332;28;20504;-66
2024/02/28 01:53:04;;;;;;;15.73;7.78;;;6.70;79.30;;;;;;5041794;28;20079;-67
2024/02/28 01:55:30;;;;;;;19.15;7.95;;;6.60;79.30;;;;;;5041292;28;20420;-66
2024/02/28 01:57:56;;;;;;;18.27;9.30;;;6.60;79.50;;;;;;5041806;28;20451;-66
2024/02/28 02:00:24;;;;;;;19.05;8.00;;;6.60;79.60;;;;;;5040097;28;20476;-69
2024/02/28 02:02:50;;;;;;;21.27;9.43;;;6.60;79.70;;;;;;5032697;28;20038;-69
2024/02/28 02:05:18;;;;;;;14.45;8.32;;;6.60;79.70;;;;;;5044576;28;20116;-69
2024/02/28 02:07:44;;;;;;;14.68;7.28;;;6.60;79.70;;;;;;5038665;28;20454;-69
2024/02/28 02:10:12;;;;;;;13.32;7.22;;;6.50;79.90;;;;;;5037446;28;20563;-67
2024/02/28 02:12:38;;;;;;;14.48;7.15;;;6.50;80.00;;;;;;5042053;28;20104;-69
2024/02/28 02:15:04;;;;;;;23.98;8.75;;;6.50;80.10;;;;;;5039739;28;20021;-69
2024/02/28 02:17:30;;;;;;;14.82;7.47;;;6.50;80.10;;;;;;5039115;28;20030;-66
2024/02/28 02:19:56;;;;;;;16.17;8.25;;;6.50;80.00;;;;;;5038307;28;20034;-67
2024/02/28 02:22:24;;;;;;;11.43;6.85;;;6.50;80.10;;;;;;5040721;28;20021;-67
2024/02/28 02:24:49;;;;;;;56.45;9.07;;;6.50;80.20;;;;;;5042213;28;20350;-67
2024/02/28 02:27:15;;;;;;;12.68;6.38;;;6.50;80.20;;;;;;5041576;28;20029;-67
2024/02/28 02:29:41;;;;;;;13.67;7.30;;;6.40;80.20;;;;;;5042022;28;20104;-69
2024/02/28 02:32:07;;;;;;;37.75;8.60;;;6.40;80.20;;;;;;5035903;28;20500;-69
2024/02/28 02:34:34;;;;;;;34.63;7.25;;;6.30;80.30;;;;;;5034616;28;20034;-69
2024/02/28 02:37:00;;;;;;;67.72;9.82;;;6.30;80.40;;;;;;5035677;28;20017;-66
2024/02/28 02:39:26;;;;;;;13.82;6.88;;;6.30;80.50;;;;;;5021454;28;20030;-66
2024/02/28 02:41:52;;;;;;;39.90;8.45;;;6.30;80.60;;;;;;5041523;28;20392;-67
2024/02/28 02:44:18;;;;;;;38.25;9.02;;;6.30;80.60;;;;;;5043005;28;20044;-66
2024/02/28 02:46:44;;;;;;;18.65;8.48;;;6.20;80.50;;;;;;5040511;28;20480;-67
2024/02/28 02:49:10;;;;;;;25.15;7.43;;;6.30;81.20;;;;;;5035869;28;20057;-69
2024/02/28 02:51:37;;;;;;;53.75;8.82;;;6.20;80.60;;;;;;5037213;28;20040;-67
2024/02/28 02:54:03;;;;;;;43.38;7.43;;;6.20;80.80;;;;;;5035964;28;20404;-68
2024/02/28 02:56:29;;;;;;;21.08;8.63;;;6.10;80.90;;;;;;5040236;28;20033;-68
2024/02/28 02:58:55;;;;;;;41.33;7.90;;;6.10;80.90;;;;;;5036541;28;20037;-68
2024/02/28 03:01:21;;;;;;;34.72;7.90;;;6.10;81.10;;;;;;5039775;28;20086;-68
2024/02/28 03:03:47;;;;;;;34.08;8.57;;;6.00;81.20;;;;;;5039545;28;20030;-68
2024/02/28 03:06:13;;;;;;;15.15;7.03;;;6.00;81.20;;;;;;5038278;28;20057;-68
2024/02/28 03:08:39;;;;;;;63.05;7.43;;;6.00;81.30;;;;;;5036035;28;20064;-68
2024/02/28 03:11:08;;;;;;;36.92;8.25;;;6.00;81.40;;;;;;5041114;28;20120;-68
2024/02/28 03:13:34;;;;;;;62.03;7.82;;;6.00;81.50;;;;;;5034835;28;20051;-68
2024/02/28 03:16:00;;;;;;;55.08;9.55;;;6.00;81.50;;;;;;5040578;28;20381;-68
2024/02/28 03:18:26;;;;;;;25.13;7.45;;;6.00;81.50;;;;;;5038343;28;20401;-68
2024/02/28 03:20:52;;;;;;;63.55;9.70;;;5.90;81.50;;;;;;5036468;28;20373;-68
2024/02/28 03:23:18;;;;;;;46.45;8.68;;;5.80;81.60;;;;;;5035495;28;20639;-69
2024/02/28 03:25:45;;;;;;;14.60;6.22;;;5.80;81.70;;;;;;5039753;28;20037;-69
2024/02/28 03:28:10;;;;;;;18.02;7.40;;;5.80;81.70;;;;;;5036183;28;20061;-68
2024/02/28 03:30:36;;;;;;;34.38;7.03;;;5.90;81.70;;;;;;5036065;28;20056;-69
2024/02/28 03:33:02;;;;;;;20.15;6.82;;;5.90;81.70;;;;;;5036393;28;20065;-68
2024/02/28 03:35:28;;;;;;;38.63;6.70;;;6.00;81.60;;;;;;5039097;28;20052;-68
2024/02/28 03:37:55;;;;;;;75.05;7.72;;;6.00;81.50;;;;;;5032078;28;20025;-68
2024/02/28 03:40:20;;;;;;;13.27;5.00;;;6.10;81.40;;;;;;5031506;28;20037;-68
2024/02/28 03:42:46;;;;;;;13.95;7.32;;;6.10;81.30;;;;;;5032577;28;20511;-68
2024/02/28 03:45:13;;;;;;;18.00;5.70;;;6.10;81.20;;;;;;5028382;28;20117;-69
2024/02/28 03:47:38;;;;;;;42.60;7.55;;;6.10;81.20;;;;;;5029605;28;20403;-69
2024/02/28 03:50:05;;;;;;;28.38;8.35;;;6.20;81.20;;;;;;5022218;28;20057;-68
2024/02/28 03:52:31;;;;;;;30.77;7.75;;;6.20;81.20;;;;;;5030403;28;20022;-68
2024/02/28 03:54:57;;;;;;;14.27;6.38;;;6.20;81.20;;;;;;5028561;28;20455;-68
2024/02/28 03:57:23;;;;;;;58.92;8.98;;;6.20;81.20;;;;;;5029515;28;20432;-68
2024/02/28 03:59:50;;;;;;;36.42;8.40;;;6.10;81.10;;;;;;5022188;28;20581;-68
2024/02/28 04:02:16;;;;;;;13.20;7.00;;;6.10;81.20;;;;;;5029631;28;20030;-68
2024/02/28 04:04:42;;;;;;;39.92;9.02;;;6.00;81.40;;;;;;5062359;28;20039;-68
2024/02/28 04:07:08;;;;;;;37.30;9.43;;;6.00;81.50;;;;;;5028508;28;20034;-68
2024/02/28 04:09:34;;;;;;;43.92;8.25;;;6.00;81.50;;;;;;5029478;28;20045;-69
2024/02/28 04:12:00;;;;;;;17.23;9.07;;;6.10;81.50;;;;;;5031111;28;20083;-68
2024/02/28 04:14:27;;;;;;;17.98;7.75;;;6.10;81.40;;;;;;5032583;28;20033;-68
2024/02/28 04:16:53;;;;;;;65.40;10.32;;;6.10;81.50;;;;;;5028329;28;20858;-69
2024/02/28 04:19:19;;;;;;;14.55;7.53;;;6.00;81.40;;;;;;5027911;28;20030;-69
2024/02/28 04:21:45;;;;;;;34.70;7.30;;;6.00;81.50;;;;;;5022983;28;20033;-69
2024/02/28 04:24:11;;;;;;;15.82;7.55;;;6.00;81.70;;;;;;5025741;28;20068;-68
2024/02/28 04:26:37;;;;;;;39.90;7.22;;;6.00;81.70;;;;;;5032157;28;20025;-68
2024/02/28 04:29:05;;;;;;;21.20;7.80;;;6.00;81.70;;;;;;5031694;28;20145;-68
2024/02/28 04:31:32;;;;;;;27.02;8.30;;;6.00;81.80;;;;;;5029329;28;20508;-68
2024/02/28 04:33:58;;;;;;;35.83;7.97;;;6.00;81.70;;;;;;5022706;28;20033;-69
2024/02/28 04:36:24;;;;;;;16.38;6.65;;;6.00;81.70;;;;;;5021919;28;20087;-69
2024/02/28 04:38:50;;;;;;;14.18;5.95;;;5.90;81.70;;;;;;5025375;28;20053;-68
2024/02/28 04:41:16;;;;;;;23.98;7.20;;;5.90;81.60;;;;;;5027703;28;20057;-68
2024/02/28 04:43:42;;;;;;;27.60;6.97;;;6.00;81.60;;;;;;5025378;28;20034;-68
2024/02/28 04:46:08;;;;;;;14.45;6.22;;;6.00;81.60;;;;;;5027096;28;20033;-68
2024/02/28 04:48:34;;;;;;;14.63;6.22;;;6.00;81.50;;;;;;5027548;28;20116;-68
2024/02/28 04:51:01;;;;;;;28.95;5.57;;;6.00;81.50;;;;;;5028466;28;20034;-68
2024/02/28 04:53:27;;;;;;;52.88;6.55;;;6.00;81.60;;;;;;5027187;28;20026;-69
2024/02/28 04:55:53;;;;;;;13.23;7.22;;;6.00;81.50;;;;;;5031034;28;20040;-68
2024/02/28 04:58:20;;;;;;;17.42;6.88;;;6.00;81.60;;;;;;5021158;28;20033;-69
2024/02/28 05:00:46;;;;;;;67.10;8.05;;;6.00;81.60;;;;;;5022732;28;20530;-68
2024/02/28 05:03:12;;;;;;;8.20;5.85;;;6.00;81.60;;;;;;5033423;28;20040;-68
2024/02/28 05:05:38;;;;;;;12.70;6.90;;;6.00;81.70;;;;;;5023544;28;20035;-68
2024/02/28 05:08:05;;;;;;;10.55;6.55;;;6.00;81.70;;;;;;5035069;28;20060;-66
2024/02/28 05:10:31;;;;;;;16.50;6.47;;;6.00;81.60;;;;;;5022100;28;20042;-68
2024/02/28 05:12:57;;;;;;;76.72;8.55;;;6.00;81.60;;;;;;5036568;28;20504;-68
2024/02/28 05:15:23;;;;;;;11.25;5.55;;;5.90;81.60;;;;;;5038599;28;20503;-66
2024/02/28 05:17:52;;;;;;;14.85;5.85;;;5.90;81.60;;;;;;5033618;28;20037;-66
2024/02/28 05:20:18;;;;;;;15.02;6.00;;;5.90;81.60;;;;;;5035707;28;20028;-66
2024/02/28 05:22:43;;;;;;;9.60;5.55;;;5.90;81.60;;;;;;5041862;28;20041;-68
2024/02/28 05:25:09;;;;;;;40.33;6.88;;;5.80;81.60;;;;;;5038701;28;20040;-66
2024/02/28 05:27:35;;;;;;;36.28;7.45;;;5.70;81.80;;;;;;5032060;28;20029;-68
2024/02/28 05:30:05;;;;;;;12.98;5.85;;;5.70;81.80;;;;;;5035840;28;20064;-68
2024/02/28 05:32:32;;;;;;;18.92;6.25;;;5.70;81.90;;;;;;5030543;28;20109;-68
2024/02/28 05:34:59;;;;;;;8.13;4.60;;;5.70;81.80;;;;;;5056593;28;20030;-69
2024/02/28 05:37:25;;;;;;;24.17;5.13;;;5.70;81.80;;;;;;5033321;28;20397;-69
2024/02/28 05:39:51;;;;;;;8.95;5.85;;;5.70;81.70;;;;;;5027493;28;20021;-68
2024/02/28 05:42:21;;;;;;;55.33;7.30;;;5.80;81.80;;;;;;5032341;28;20025;-68
2024/02/28 05:44:48;;;;;;;14.02;6.40;;;5.80;81.70;;;;;;5032812;28;20491;-68
2024/02/28 05:47:15;;;;;;;36.25;5.82;;;5.70;81.70;;;;;;5026790;28;20421;-69
2024/02/28 05:49:41;;;;;;;47.13;8.02;;;5.70;81.80;;;;;;5033399;28;20093;-68
2024/02/28 05:52:07;;;;;;;16.20;6.60;;;5.80;81.90;;;;;;5031003;28;20061;-68
2024/02/28 05:54:34;;;;;;;78.40;7.40;;;5.80;81.90;;;;;;5033284;28;20563;-68
2024/02/28 05:57:00;;;;;;;20.73;6.38;;;5.80;81.90;;;;;;5031845;28;20112;-66
2024/02/28 05:59:26;;;;;;;10.80;6.38;;;5.80;81.90;;;;;;5033011;28;20056;-69
2024/02/28 06:01:52;;;;;;;14.63;5.68;;;5.80;81.90;;;;;;5031163;28;20393;-69
2024/02/28 06:04:17;;;;;;;9.35;5.55;;;5.80;82.00;;;;;;5036303;28;20472;-68
2024/02/28 06:06:43;;;;;;;19.55;5.68;;;5.80;82.00;;;;;;5034340;28;20346;-68
2024/02/28 06:09:09;;;;;;;28.98;5.53;;;5.80;81.90;;;;;;5032721;28;20366;-68
2024/02/28 06:11:35;;;;;;;11.32;6.07;;;5.80;81.80;;;;;;5032364;28;20045;-67
2024/02/28 06:14:02;;;;;;;16.00;6.13;;;5.80;81.80;;;;;;5039526;28;20244;-66
2024/02/28 06:16:28;;;;;;;31.98;5.72;;;5.70;81.80;;;;;;5050175;28;20034;-66
2024/02/28 06:18:53;;;;;;;23.50;5.95;;;5.70;81.90;;;;;;5028983;28;20087;-66
2024/02/28 06:21:22;;;;;;;32.03;4.93;;;5.60;81.80;;;;;;5036994;28;20025;-66
2024/02/28 06:23:48;;;;;;;24.45;5.43;;;5.60;81.90;;;;;;5033253;28;20079;-66
2024/02/28 06:26:17;;;;;;;11.40;5.60;;;5.50;81.90;;;;;;5037854;28;20487;-66
2024/02/28 06:28:46;;;;;;;10.85;5.18;;;5.50;82.00;;;;;;5034547;28;20484;-66
2024/02/28 06:31:16;;;;;;;24.23;6.00;;;5.50;82.00;;;;;;5029338;28;20047;-66
2024/02/28 06:33:42;;;;;;;23.35;5.15;;;5.50;82.00;;;;;;5033034;28;20048;-66
2024/02/28 06:36:08;;;;;;;7.68;4.35;;;5.50;82.00;;;;;;5030043;28;20018;-68
2024/02/28 06:38:34;;;;;;;18.67;4.95;;;5.40;81.90;;;;;;5029825;28;20384;-66
2024/02/28 06:41:05;;;;;;;40.97;5.60;;;5.40;81.90;;;;;;5025526;28;20029;-65
2024/02/28 06:43:34;;;;;;;37.92;4.70;;;5.40;81.90;;;;;;5031682;28;20488;-66
2024/02/28 06:46:00;;;;;;;11.90;4.43;;;5.30;81.90;;;;;;5029401;28;20055;-65
2024/02/28 06:48:25;;;;;;;14.95;5.00;;;5.30;81.90;;;;;;5041085;28;20428;-68
2024/02/28 06:50:51;;;;;;;5.53;3.53;;;5.30;82.00;;;;;;5036836;28;20033;-69
2024/02/28 06:53:17;;;;;;;5.80;3.83;;;5.30;82.00;;;;;;5042596;28;20035;-68
2024/02/28 06:55:44;;;;;;;13.70;5.10;;;5.30;81.90;;;;;;5030257;28;20049;-68
2024/02/28 06:58:09;;;;;;;5.03;3.65;;;5.30;81.80;;;;;;5029775;28;20029;-68
2024/02/28 07:00:35;;;;;;;9.38;4.38;;;5.40;81.90;;;;;;5024819;28;20453;-68
2024/02/28 07:03:01;;;;;;;7.88;4.53;;;5.40;81.80;;;;;;5033069;28;20029;-66
2024/02/28 07:05:26;;;;;;;7.50;3.70;;;5.40;81.80;;;;;;5036394;28;20512;-65
2024/02/28 07:07:52;;;;;;;30.85;4.85;;;5.40;81.70;;;;;;5030241;28;20037;-65
2024/02/28 07:10:18;;;;;;;9.32;5.32;;;5.40;81.70;;;;;;5029143;28;20396;-66
2024/02/28 07:12:44;;;;;;;26.45;5.10;;;5.40;81.60;;;;;;5020971;28;20076;-66
2024/02/28 07:15:10;;;;;;;7.63;3.58;;;5.40;82.20;;;;;;5030483;28;20042;-66
2024/02/28 07:17:35;;;;;;;9.95;4.63;;;5.40;81.60;;;;;;5033559;28;20057;-66
2024/02/28 07:20:01;;;;;;;37.00;5.15;;;5.40;81.60;;;;;;5031908;28;20037;-66
2024/02/28 07:22:27;;;;;;;8.32;4.70;;;5.50;81.60;;;;;;5030754;28;20460;-66
2024/02/28 07:24:52;;;;;;;9.43;5.25;;;5.50;81.60;;;;;;5031116;28;20030;-65
2024/02/28 07:27:18;;;;;;;8.52;5.00;;;5.50;81.60;;;;;;5029937;28;20029;-66
2024/02/28 07:29:44;;;;;;;9.15;4.97;;;5.50;81.50;;;;;;5031360;28;20041;-69
2024/02/28 07:32:09;;;;;;;6.85;4.55;;;5.60;81.40;;;;;;5026099;28;20679;-68
2024/02/28 07:34:35;;;;;;;10.85;6.07;;;5.60;81.50;;;;;;5033527;28;20477;-68
2024/02/28 07:37:01;;;;;;;9.77;5.90;;;5.60;81.40;;;;;;5032292;28;20041;-66
2024/02/28 07:39:27;;;;;;;9.30;5.65;;;5.60;81.40;;;;;;5020331;28;20033;-66
2024/02/28 07:41:52;;;;;;;6.72;4.28;;;5.60;81.50;;;;;;5026090;28;20245;-66
2024/02/28 07:44:18;;;;;;;11.00;5.60;;;5.60;81.50;;;;;;5033074;28;20037;-65
2024/02/28 07:46:44;;;;;;;13.80;5.60;;;5.60;81.50;;;;;;5027426;28;20087;-66
2024/02/28 07:49:10;;;;;;;8.63;5.50;;;5.70;81.50;;;;;;5060680;28;20352;-66
2024/02/28 07:51:36;;;;;;;8.32;5.20;;;5.70;81.40;;;;;;5026248;28;20037;-65
2024/02/28 07:54:02;;;;;;;11.88;7.93;;;5.70;81.50;;;;;;5028035;28;20186;-65
2024/02/28 07:56:29;;;;;;;9.23;5.65;;;5.80;81.60;;;;;;5031777;28;20026;-65
2024/02/28 07:58:54;;;;;;;11.05;6.10;;;5.80;81.60;;;;;;5027544;28;20026;-66
2024/02/28 08:01:22;;;;;;;10.00;5.93;;;5.90;81.50;;;;;;5022231;28;20571;-64
2024/02/28 08:03:47;;;;;;;9.85;6.60;;;5.90;81.40;;;;;;5032050;28;20454;-65
2024/02/28 08:06:13;;;;;;;11.63;6.07;;;6.00;81.40;;;;;;5028702;28;20032;-66
2024/02/28 08:08:39;;;;;;;9.73;6.60;;;6.00;81.30;;;;;;5035134;28;20067;-67
2024/02/28 08:11:04;;;;;;;13.55;6.05;;;6.10;81.30;;;;;;5029711;28;20041;-66
2024/02/28 08:13:32;;;;;;;11.23;6.05;;;6.10;81.30;;;;;;5030938;28;20385;-66
2024/02/28 08:15:58;;;;;;;10.30;6.72;;;6.10;81.40;;;;;;5032415;28;20517;-67
2024/02/28 08:18:25;;;;;;;10.35;6.30;;;6.10;81.30;;;;;;5027295;28;20030;-66
2024/02/28 08:20:52;;;;;;;14.82;7.40;;;6.10;81.50;;;;;;5031027;28;20057;-67
2024/02/28 08:23:18;;;;;;;12.68;7.20;;;6.20;81.70;;;;;;5031426;28;20492;-67
2024/02/28 08:25:44;;;;;;;10.93;6.93;;;6.20;81.70;;;;;;5033928;28;20033;-67
2024/02/28 08:28:09;;;;;;;11.00;5.82;;;6.10;81.80;;;;;;5031678;28;20056;-68
2024/02/28 08:30:35;;;;;;;15.18;7.82;;;6.10;81.90;;;;;;5010284;28;20038;-67
2024/02/28 08:33:00;;;;;;;12.40;7.70;;;6.20;82.00;;;;;;5023730;28;20030;-67
2024/02/28 08:35:26;;;;;;;14.38;7.40;;;6.20;81.90;;;;;;5025937;28;20025;-65
2024/02/28 08:37:52;;;;;;;10.82;6.78;;;6.30;81.90;;;;;;5029218;28;20033;-69
2024/02/28 08:40:18;;;;;;;15.00;6.63;;;6.30;81.90;;;;;;5032879;28;20434;-67
2024/02/28 08:42:46;;;;;;;17.30;8.95;;;6.20;81.90;;;;;;5029907;28;20034;-66
2024/02/28 08:45:11;;;;;;;15.32;8.23;;;6.20;82.00;;;;;;5032816;28;20044;-66
2024/02/28 08:47:37;;;;;;;16.40;7.25;;;6.30;82.30;;;;;;5029622;28;20030;-65
2024/02/28 08:50:04;;;;;;;17.67;6.80;;;6.30;82.40;;;;;;5026873;28;20168;-64
2024/02/28 08:52:30;;;;;;;11.90;6.90;;;6.30;82.30;;;;;;5029104;28;20395;-69
2024/02/28 08:54:55;;;;;;;11.60;6.03;;;6.40;82.30;;;;;;5010762;28;20047;-68
2024/02/28 08:57:23;;;;;;;11.55;6.72;;;6.40;82.10;;;;;;5023602;28;20021;-70
2024/02/28 08:59:49;;;;;;;14.45;7.88;;;6.50;82.20;;;;;;5026860;28;20453;-70
2024/02/28 09:02:15;;;;;;;15.40;7.38;;;6.50;82.20;;;;;;5028465;28;20096;-70
2024/02/28 09:04:40;;;;;;;10.25;5.78;;;6.50;82.50;;;;;;5024929;28;20040;-69
2024/02/28 09:07:06;;;;;;;16.00;7.20;;;6.60;82.50;;;;;;5024011;28;20035;-68
2024/02/28 09:09:36;;;;;;;15.80;7.60;;;6.70;82.40;;;;;;5028133;28;20033;-67
2024/02/28 09:12:03;;;;;;;23.52;9.40;;;6.80;82.40;;;;;;5027173;28;20095;-68
2024/02/28 09:14:28;;;;;;;15.23;8.30;;;6.80;82.40;;;;;;5030838;28;20076;-68
2024/02/28 09:17:00;;;;;;;19.02;8.00;;;6.80;82.50;;;;;;5025535;28;20423;-69
2024/02/28 09:19:26;;;;;;;15.32;8.23;;;6.90;82.50;;;;;;5031587;28;20108;-69
2024/02/28 09:21:51;;;;;;;12.35;6.80;;;7.00;82.70;;;;;;5028521;28;20125;-69
2024/02/28 09:24:17;;;;;;;22.02;10.35;;;7.10;82.60;;;;;;5007790;28;20049;-68
2024/02/28 09:26:43;;;;;;;15.75;7.43;;;7.10;82.20;;;;;;5026719;28;20029;-65
2024/02/28 09:29:09;;;;;;;20.45;8.15;;;7.10;82.10;;;;;;5016783;28;20037;-65
2024/02/28 09:31:34;;;;;;;18.40;7.72;;;7.00;82.30;;;;;;5026260;28;20507;-66
2024/02/28 09:34:04;;;;;;;13.52;6.53;;;7.00;82.50;;;;;;5023490;28;20032;-67
2024/02/28 09:36:29;;;;;;;18.83;6.78;;;7.00;82.50;;;;;;5018645;28;20113;-67
2024/02/28 09:38:56;;;;;;;13.45;8.57;;;7.10;82.40;;;;;;5020642;28;20115;-67
2024/02/28 09:41:26;;;;;;;15.10;8.65;;;7.10;82.30;;;;;;5007602;28;20029;-67
2024/02/28 09:43:52;;;;;;;18.40;8.45;;;7.10;82.40;;;;;;5025444;28;20030;-67
2024/02/28 09:46:18;;;;;;;16.75;7.55;;;7.10;82.40;;;;;;5030515;28;20428;-67
2024/02/28 09:48:48;;;;;;;15.90;8.35;;;7.00;82.30;;;;;;5031059;28;20029;-67
2024/02/28 09:51:17;;;;;;;16.55;8.60;;;7.00;82.40;;;;;;5027522;28;20038;-66
2024/02/28 09:53:43;;;;;;;13.82;7.35;;;6.90;82.50;;;;;;5024152;28;20038;-67
2024/02/28 09:56:09;;;;;;;21.50;9.75;;;7.00;82.70;;;;;;5036743;28;20451;-67
2024/02/28 09:58:35;;;;;;;15.68;8.18;;;7.10;82.60;;;;;;5025568;28;20117;-67
2024/02/28 10:01:03;;;;;;;21.05;8.43;;;7.10;82.50;;;;;;5013817;28;20125;-68
2024/02/28 10:03:30;;;;;;;15.35;7.50;;;7.10;82.40;;;;;;5018627;28;20029;-67
2024/02/28 10:05:56;;;;;;;11.93;7.40;;;7.10;82.40;;;;;;5023407;28;20047;-67
2024/02/28 10:08:23;;;;;;;11.93;7.90;;;7.30;82.50;;;;;;5025029;28;20038;-67
2024/02/28 10:10:49;;;;;;;15.10;8.13;;;7.40;82.50;;;;;;5036032;28;20028;-67
2024/02/28 10:13:18;;;;;;;16.08;7.95;;;7.60;82.30;;;;;;5030780;28;20104;-67
2024/02/28 10:15:44;;;;;;;15.43;9.48;;;7.70;81.90;;;;;;5021778;28;20466;-67
2024/02/28 10:18:10;;;;;;;15.82;8.18;;;7.80;81.70;;;;;;5031726;28;20105;-66
2024/02/28 10:20:36;;;;;;;10.25;7.18;;;7.90;81.70;;;;;;5038226;28;20407;-67
2024/02/28 10:23:06;;;;;;;15.93;7.95;;;8.00;81.70;;;;;;5033124;28;20112;-67
2024/02/28 10:25:32;;;;;;;17.67;7.55;;;8.00;81.50;;;;;;5039356;28;20362;-67
2024/02/28 10:28:01;;;;;;;11.73;7.03;;;8.10;81.60;;;;;;5025876;28;20148;-67
2024/02/28 10:30:28;;;;;;;17.40;6.95;;;8.10;81.60;;;;;;5020273;28;20116;-67
2024/02/28 10:32:53;;;;;;;15.43;8.13;;;8.20;81.60;;;;;;5025506;28;20396;-66
2024/02/28 10:35:20;;;;;;;14.60;6.65;;;8.20;81.60;;;;;;5037173;28;20049;-67
2024/02/28 10:37:47;;;;;;;14.75;8.15;;;8.30;81.60;;;;;;5029122;28;20396;-66
2024/02/28 10:40:14;;;;;;;19.52;8.93;;;8.30;81.40;;;;;;5029186;28;20025;-67
2024/02/28 10:42:42;;;;;;;19.92;9.70;;;8.20;81.20;;;;;;5027458;28;20148;-67
2024/02/28 10:45:10;;;;;;;14.38;7.30;;;8.20;81.40;;;;;;5025382;28;20377;-67
2024/02/28 10:47:41;;;;;;;17.92;9.15;;;8.20;81.60;;;;;;5044635;28;20201;-67
2024/02/28 10:50:07;;;;;;;17.00;9.05;;;8.30;81.50;;;;;;5054850;28;20446;-67
2024/02/28 10:52:35;;;;;;;18.42;8.48;;;8.30;81.40;;;;;;5030331;28;20037;-66
2024/02/28 10:55:02;;;;;;;13.35;7.47;;;8.40;81.40;;;;;;5026614;28;20362;-66
2024/02/28 10:57:30;;;;;;;18.48;9.77;;;8.40;81.30;;;;;;5019700;28;20024;-67
2024/02/28 10:59:57;;;;;;;15.38;7.07;;;8.50;81.20;;;;;;5021676;28;21170;-66
2024/02/28 11:02:25;;;;;;;12.68;8.02;;;8.50;81.00;;;;;;5033368;28;20094;-69
2024/02/28 11:04:54;;;;;;;19.23;9.70;;;8.50;81.10;;;;;;5019162;28;20030;-69
2024/02/28 11:07:21;;;;;;;14.73;7.50;;;8.50;81.00;;;;;;5030504;28;20041;-69
2024/02/28 11:09:47;;;;;;;16.27;8.35;;;8.50;80.90;;;;;;5005782;28;20072;-69
2024/02/28 11:12:29;;;;;;;13.75;7.57;;;8.50;81.20;;;;;;5029294;28;20037;-69
2024/02/28 11:15:05;;;;;;;14.43;7.23;;;8.50;81.30;;;;;;5035886;28;20022;-69
2024/02/28 11:17:32;;;;;;;13.70;7.43;;;8.60;81.20;;;;;;5020342;28;20029;-69
2024/02/28 11:19:58;;;;;;;18.38;7.90;;;8.70;81.10;;;;;;5023041;28;20469;-69
2024/02/28 11:22:27;;;;;;;14.70;6.45;;;8.80;81.00;;;;;;5029789;28;20504;-69
2024/02/28 11:24:55;;;;;;;15.52;8.23;;;8.80;80.80;;;;;;5023107;28;20530;-69
2024/02/28 11:27:21;;;;;;;16.08;8.18;;;8.70;80.80;;;;;;5033049;28;20037;-69
2024/02/28 11:29:49;;;;;;;13.32;7.60;;;8.70;81.00;;;;;;5020378;28;20013;-70
2024/02/28 11:32:15;;;;;;;11.55;6.82;;;8.80;81.10;;;;;;5016969;28;20037;-69
2024/02/28 11:34:41;;;;;;;15.85;8.48;;;8.90;81.00;;;;;;5027658;28;20489;-67
2024/02/28 11:37:09;;;;;;;11.52;6.80;;;9.00;80.80;;;;;;5025523;28;20032;-66
2024/02/28 11:39:36;;;;;;;13.05;6.53;;;9.00;80.60;;;;;;5020601;28;20030;-68
2024/02/28 11:42:17;;;;;;;16.52;7.53;;;9.00;81.10;;;;;;5033722;28;20034;-69
2024/02/28 11:44:43;;;;;;;9.88;5.28;;;9.00;80.60;;;;;;5026970;28;20029;-67
2024/02/28 11:47:10;;;;;;;12.15;6.82;;;8.90;80.80;;;;;;5018891;28;20033;-67
2024/02/28 11:49:39;;;;;;;20.13;7.40;;;8.90;80.80;;;;;;5021418;28;20682;-67
2024/02/28 11:52:05;;;;;;;9.48;5.90;;;9.00;80.90;;;;;;5027121;28;20087;-67
2024/02/28 11:54:31;;;;;;;12.85;7.07;;;9.00;80.80;;;;;;5027684;28;20049;-67
2024/02/28 11:56:57;;;;;;;10.65;6.78;;;9.10;80.90;;;;;;5021276;28;20030;-67
2024/02/28 11:59:23;;;;;;;11.48;6.32;;;9.10;80.80;;;;;;5027485;28;20065;-67
2024/02/28 12:01:49;;;;;;;14.40;7.55;;;9.20;80.80;;;;;;5020526;28;20061;-67
2024/02/28 12:04:16;;;;;;;14.70;7.38;;;9.20;80.80;;;;;;5018343;28;20036;-67
2024/02/28 12:06:42;;;;;;;14.88;7.55;;;9.20;80.80;;;;;;5045556;28;20132;-67
2024/02/28 12:09:11;;;;;;;14.48;7.20;;;9.30;80.90;;;;;;5027633;28;20055;-67
2024/02/28 12:11:38;;;;;;;14.25;7.90;;;9.30;81.00;;;;;;5025177;28;20112;-67
2024/02/28 12:14:09;;;;;;;13.80;7.03;;;9.30;81.00;;;;;;5025227;28;20018;-67
2024/02/28 12:16:37;;;;;;;15.82;8.05;;;9.40;81.10;;;;;;5024137;28;20041;-67
2024/02/28 12:19:10;;;;;;;15.25;6.45;;;9.40;81.00;;;;;;5026297;28;20033;-69
2024/02/28 12:21:40;;;;;;;12.80;7.65;;;9.50;81.00;;;;;;5026622;28;20046;-69
2024/02/28 12:24:10;;;;;;;15.07;8.35;;;9.60;81.00;;;;;;5022744;28;20029;-69
2024/02/28 12:26:36;;;;;;;12.20;6.60;;;9.60;80.90;;;;;;5027209;28;20481;-69
2024/02/28 12:29:02;;;;;;;15.40;6.85;;;9.70;80.90;;;;;;5056601;28;20376;-69
2024/02/28 12:31:28;;;;;;;15.05;8.43;;;9.80;80.90;;;;;;5027734;28;20022;-69
2024/02/28 12:33:54;;;;;;;15.15;8.95;;;9.80;80.80;;;;;;5027026;28;20033;-69
2024/02/28 12:36:20;;;;;;;13.30;7.18;;;9.80;80.80;;;;;;5024432;28;20052;-69
2024/02/28 12:38:47;;;;;;;13.15;8.68;;;9.90;80.90;;;;;;5023147;28;20037;-69
2024/02/28 12:41:13;;;;;;;14.63;7.25;;;9.90;80.90;;;;;;5025360;28;20018;-69
2024/02/28 12:43:39;;;;;;;12.07;6.25;;;9.90;80.80;;;;;;5009536;28;20049;-69